Time;durP1;ratioP1;P1;durP2;ratioP2;P2;SDS_P1;SDS_P2;PMS_P1;PMS_P2;Temp;Humidity;BMP_temperature;BMP_pressure;BME280_temperature;BME280_humidity;BME280_pressure;Samples;Min_cycle;Max_cycle;Signal;HPM_P1;HPM_P2
2021/03/13 00:01:53;;;;;;;114.47;68.05;;;;;;;5.04;100.00;101198.97;4917214;29;20064;-74
2021/03/13 00:04:39;;;;;;;117.88;69.78;;;;;;;5.01;100.00;101188.53;4920904;29;20020;-73
2021/03/13 00:07:25;;;;;;;113.85;65.65;;;;;;;5.09;100.00;101189.50;4923070;29;20036;-73
2021/03/13 00:10:10;;;;;;;117.22;67.13;;;;;;;5.25;100.00;101169.75;4920094;29;20339;-74
2021/03/13 00:12:56;;;;;;;112.85;65.32;;;;;;;4.99;100.00;101169.47;4919359;29;20144;-73
2021/03/13 00:15:43;;;;;;;109.47;64.95;;;;;;;5.33;100.00;101162.94;4921034;29;20047;-73
2021/03/13 00:18:29;;;;;;;106.28;62.28;;;;;;;5.06;100.00;101168.69;4906490;29;20441;-75
2021/03/13 00:21:15;;;;;;;100.72;59.33;;;;;;;4.76;100.00;101159.66;4916982;29;20111;-74
2021/03/13 00:24:00;;;;;;;105.38;62.17;;;;;;;4.85;100.00;101150.25;4917419;29;20300;-74
2021/03/13 00:26:46;;;;;;;99.45;60.17;;;;;;;5.13;100.00;101148.84;4918132;29;20484;-74
2021/03/13 00:29:32;;;;;;;94.80;57.92;;;;;;;5.38;100.00;101154.31;4903595;29;20040;-74
2021/03/13 00:32:18;;;;;;;93.57;56.22;;;;;;;5.42;100.00;101152.63;4917376;29;20056;-74
2021/03/13 00:35:04;;;;;;;94.88;54.47;;;;;;;5.46;100.00;101146.59;4916793;29;20110;-73
2021/03/13 00:37:50;;;;;;;88.65;53.22;;;;;;;5.43;100.00;101144.84;4917093;29;20111;-73
2021/03/13 00:40:39;;;;;;;86.10;52.55;;;;;;;5.33;100.00;101144.75;4918182;29;20039;-73
2021/03/13 00:43:24;;;;;;;91.28;54.05;;;;;;;5.08;100.00;101138.44;4903900;29;20095;-73
2021/03/13 00:46:10;;;;;;;87.95;53.17;;;;;;;5.68;100.00;101129.47;4905492;29;20021;-74
2021/03/13 00:48:56;;;;;;;90.68;55.25;;;;;;;5.76;100.00;101131.31;4921880;29;20055;-73
2021/03/13 00:51:42;;;;;;;84.88;52.78;;;;;;;5.46;100.00;101128.41;4921174;29;20027;-75
2021/03/13 00:54:27;;;;;;;83.82;51.00;;;;;;;5.67;100.00;101115.63;4920700;29;20039;-74
2021/03/13 00:57:13;;;;;;;85.63;50.60;;;;;;;5.86;100.00;101114.09;4907384;29;20111;-74
2021/03/13 00:59:59;;;;;;;83.57;51.55;;;;;;;5.78;100.00;101100.97;4908161;29;20024;-75
2021/03/13 01:02:46;;;;;;;83.45;50.47;;;;;;;5.71;100.00;101095.72;4921167;29;20098;-74
2021/03/13 01:05:32;;;;;;;86.68;52.00;;;;;;;5.42;100.00;101095.47;4921308;29;20023;-73
2021/03/13 01:08:18;;;;;;;84.63;50.95;;;;;;;5.44;100.00;101092.00;4919860;29;20024;-73
2021/03/13 01:11:04;;;;;;;84.60;51.03;;;;;;;5.46;100.00;101088.59;4919958;29;20056;-74
2021/03/13 01:13:49;;;;;;;83.25;51.00;;;;;;;5.42;100.00;101081.63;4920328;29;20418;-73
2021/03/13 01:16:36;;;;;;;88.43;52.30;;;;;;;5.64;100.00;101079.22;4920036;29;20039;-73
2021/03/13 01:19:21;;;;;;;89.57;54.10;;;;;;;5.73;100.00;101081.88;4920447;29;20414;-74
2021/03/13 01:22:07;;;;;;;88.75;54.15;;;;;;;5.35;100.00;101080.69;4920846;29;20032;-74
2021/03/13 01:24:53;;;;;;;94.50;58.33;;;;;;;5.69;100.00;101074.03;4907764;29;20042;-74
2021/03/13 01:27:40;;;;;;;95.18;56.92;;;;;;;5.66;100.00;101074.88;4919564;29;20039;-74
2021/03/13 01:30:25;;;;;;;96.25;55.05;;;;;;;5.63;100.00;101058.41;4907425;29;20051;-74
2021/03/13 01:33:11;;;;;;;90.95;54.83;;;;;;;5.65;100.00;101048.88;4919379;29;20048;-74
2021/03/13 01:35:57;;;;;;;93.20;55.10;;;;;;;5.72;100.00;101046.34;4920313;29;20024;-74
2021/03/13 01:38:43;;;;;;;85.45;52.95;;;;;;;5.42;100.00;101038.31;4921076;29;20032;-74
2021/03/13 01:41:28;;;;;;;90.38;52.17;;;;;;;5.59;100.00;101048.84;4922756;29;20108;-74
2021/03/13 01:44:14;;;;;;;85.45;49.38;;;;;;;5.70;100.00;101048.06;4924221;29;20036;-73
2021/03/13 01:47:00;;;;;;;79.28;47.78;;;;;;;5.73;100.00;101044.59;4922633;29;20036;-73
2021/03/13 01:49:48;;;;;;;78.22;47.08;;;;;;;5.98;100.00;101041.38;4920966;29;20051;-74
2021/03/13 01:52:34;;;;;;;76.28;47.03;;;;;;;6.10;100.00;101044.88;4919605;29;20028;-74
2021/03/13 01:55:20;;;;;;;78.13;46.40;;;;;;;5.99;100.00;101043.94;4921909;29;20028;-74
2021/03/13 01:58:06;;;;;;;74.40;45.83;;;;;;;5.82;100.00;101047.31;4918934;29;20024;-73
2021/03/13 02:00:51;;;;;;;78.72;48.60;;;;;;;5.93;100.00;101049.13;4919961;29;20055;-74
2021/03/13 02:03:42;;;;;;;78.60;48.92;;;;;;;5.45;100.00;101056.53;4919146;29;20383;-74
2021/03/13 02:06:28;;;;;;;92.68;56.03;;;;;;;5.24;100.00;101051.16;4907319;29;20028;-73
2021/03/13 02:09:28;;;;;;;82.32;49.38;;;;;;;5.43;100.00;101046.97;4919064;29;20032;-74
2021/03/13 02:12:39;;;;;;;83.85;50.95;;;;;;;5.06;100.00;101038.84;4920060;29;20394;-74
2021/03/13 02:15:48;;;;;;;82.88;49.78;;;;;;;5.32;100.00;101042.53;4905713;29;20036;-74
2021/03/13 02:18:52;;;;;;;79.95;48.20;;;;;;;5.70;100.00;101042.84;4919544;29;20044;-74
2021/03/13 02:21:43;;;;;;;78.78;50.22;;;;;;;5.71;100.00;101041.13;4919335;29;20047;-73
2021/03/13 02:24:29;;;;;;;79.15;48.20;;;;;;;5.28;100.00;101026.94;4920419;29;20027;-74
2021/03/13 02:27:20;;;;;;;79.82;48.47;;;;;;;5.57;100.00;101014.16;4905854;29;20054;-74
2021/03/13 02:30:12;;;;;;;79.10;47.30;;;;;;;5.61;100.00;101009.00;4907024;29;20067;-73
2021/03/13 02:33:20;;;;;;;75.20;46.50;;;;;;;5.47;100.00;101018.44;4906323;29;20489;-74
2021/03/13 02:36:11;;;;;;;75.13;47.13;;;;;;;5.70;100.00;101013.41;4920335;29;20028;-75
2021/03/13 02:39:08;;;;;;;71.72;46.25;;;;;;;6.06;100.00;101024.06;4918395;29;20024;-75
2021/03/13 02:41:59;;;;;;;73.68;45.58;;;;;;;6.05;100.00;101010.19;4920537;29;20512;-74
2021/03/13 02:44:47;;;;;;;75.25;46.28;;;;;;;6.08;100.00;101001.53;4918595;29;20462;-74
2021/03/13 02:47:35;;;;;;;76.97;48.08;;;;;;;5.75;100.00;100990.91;4918646;29;20035;-74
2021/03/13 02:50:21;;;;;;;79.07;48.35;;;;;;;5.66;100.00;100999.50;4918611;29;20032;-74
2021/03/13 02:53:07;;;;;;;75.13;46.47;;;;;;;5.88;100.00;100997.94;4906197;29;20059;-74
2021/03/13 02:55:53;;;;;;;75.18;47.67;;;;;;;6.25;100.00;100997.25;4918811;29;20481;-74
2021/03/13 02:58:40;;;;;;;80.72;48.63;;;;;;;5.58;100.00;100995.13;4918273;29;20115;-74
2021/03/13 03:01:28;;;;;;;70.80;44.03;;;;;;;5.66;100.00;100996.91;4906054;29;20028;-74
2021/03/13 03:04:16;;;;;;;67.63;43.17;;;;;;;5.58;100.00;101005.53;4918071;29;20179;-74
2021/03/13 03:07:03;;;;;;;71.72;45.90;;;;;;;5.59;100.00;101009.84;4919179;29;20035;-74
2021/03/13 03:09:50;;;;;;;72.20;43.60;;;;;;;6.14;100.00;100997.22;4918270;29;20036;-74
2021/03/13 03:12:37;;;;;;;55.63;32.28;;;;;;;5.85;100.00;100991.00;4905745;29;20066;-74
2021/03/13 03:15:26;;;;;;;54.47;34.72;;;;;;;6.12;100.00;100983.34;4917968;29;20070;-73
2021/03/13 03:18:16;;;;;;;51.67;32.72;;;;;;;5.98;100.00;100978.94;4906878;29;20035;-74
2021/03/13 03:21:03;;;;;;;51.20;31.52;;;;;;;6.17;100.00;100985.97;4919288;29;20047;-73
2021/03/13 03:23:50;;;;;;;43.28;28.65;;;;;;;6.08;100.00;100985.94;4905233;29;20027;-73
2021/03/13 03:26:36;;;;;;;43.17;28.13;;;;;;;5.84;100.00;100975.38;4917917;29;20028;-73
2021/03/13 03:29:22;;;;;;;42.65;27.10;;;;;;;5.85;100.00;100977.13;4919130;29;20055;-73
2021/03/13 03:32:08;;;;;;;42.00;27.30;;;;;;;6.39;100.00;100978.25;4905091;29;20115;-74
2021/03/13 03:34:54;;;;;;;41.08;25.50;;;;;;;6.58;100.00;100979.16;4919270;29;20051;-74
2021/03/13 03:37:41;;;;;;;37.70;24.60;;;;;;;6.68;100.00;100981.81;4918142;29;20032;-73
2021/03/13 03:40:31;;;;;;;34.53;22.08;;;;;;;6.23;100.00;100984.25;4921956;29;20537;-73
2021/03/13 03:43:40;;;;;;;35.45;22.95;;;;;;;5.88;100.00;100996.22;4922957;29;20032;-73
2021/03/13 03:46:27;;;;;;;34.05;23.27;;;;;;;5.86;100.00;100991.88;4923059;29;20484;-73
2021/03/13 03:49:14;;;;;;;34.08;22.95;;;;;;;5.61;100.00;100995.13;4910117;29;20449;-73
2021/03/13 03:52:01;;;;;;;34.58;23.90;;;;;;;5.77;100.00;101002.16;4909470;29;20036;-73
2021/03/13 03:54:48;;;;;;;34.60;23.63;;;;;;;6.22;100.00;101007.69;4921028;29;20067;-73
2021/03/13 03:57:34;;;;;;;38.85;26.15;;;;;;;6.21;100.00;101012.00;4919336;29;20059;-74
2021/03/13 04:00:22;;;;;;;47.17;30.10;;;;;;;5.94;100.00;101011.84;4919628;29;20031;-73
2021/03/13 04:03:12;;;;;;;45.42;29.40;;;;;;;5.91;100.00;101011.81;4904213;29;20168;-73
2021/03/13 04:05:58;;;;;;;47.80;30.73;;;;;;;5.84;100.00;101009.19;4905249;29;20036;-74
2021/03/13 04:08:46;;;;;;;53.80;33.88;;;;;;;6.11;100.00;101019.75;4917314;29;20042;-74
2021/03/13 04:11:32;;;;;;;51.47;32.78;;;;;;;5.99;100.00;101015.34;4918964;29;20020;-74
2021/03/13 04:14:18;;;;;;;54.55;35.38;;;;;;;6.10;100.00;101012.81;4918835;29;20121;-74
2021/03/13 04:17:05;;;;;;;50.45;32.30;;;;;;;5.67;100.00;101026.38;4917269;29;20373;-74
2021/03/13 04:19:51;;;;;;;55.47;33.63;;;;;;;6.00;100.00;101030.09;4916799;29;20024;-74
2021/03/13 04:22:38;;;;;;;53.17;32.67;;;;;;;5.61;100.00;101028.91;4917554;29;20028;-74
2021/03/13 04:25:25;;;;;;;49.20;31.92;;;;;;;6.06;100.00;101039.69;4918415;29;20047;-73
2021/03/13 04:28:11;;;;;;;54.30;33.63;;;;;;;6.20;100.00;101043.22;4916841;29;20036;-74
2021/03/13 04:30:57;;;;;;;52.03;31.90;;;;;;;6.04;100.00;101034.47;4917559;29;20034;-74
2021/03/13 04:33:43;;;;;;;48.58;30.63;;;;;;;5.75;100.00;101019.50;4916320;29;20452;-73
2021/03/13 04:36:32;;;;;;;52.08;32.97;;;;;;;5.91;100.00;101018.78;4904682;29;20036;-74
2021/03/13 04:39:18;;;;;;;48.75;30.73;;;;;;;6.24;100.00;100995.53;4917658;29;20050;-73
2021/03/13 04:42:06;;;;;;;53.83;34.63;;;;;;;5.38;100.00;101003.66;4917130;29;20032;-73
2021/03/13 04:44:52;;;;;;;59.22;36.00;;;;;;;5.50;100.00;101004.59;4917363;29;20024;-74
2021/03/13 04:47:42;;;;;;;65.15;37.40;;;;;;;5.72;100.00;101006.47;4918065;29;20025;-74
2021/03/13 04:50:28;;;;;;;67.47;40.33;;;;;;;5.71;100.00;100997.81;4904743;29;20080;-73
2021/03/13 04:53:14;;;;;;;62.42;39.75;;;;;;;6.06;100.00;101006.72;4916539;29;20071;-73
2021/03/13 04:56:00;;;;;;;68.00;40.58;;;;;;;5.74;100.00;101002.19;4916971;29;20075;-75
2021/03/13 04:58:46;;;;;;;65.45;39.00;;;;;;;5.31;100.00;101007.03;4917568;29;20465;-73
2021/03/13 05:01:31;;;;;;;61.45;36.67;;;;;;;5.25;100.00;101013.91;4917659;29;20028;-73
2021/03/13 05:04:17;;;;;;;61.85;39.00;;;;;;;5.48;100.00;101008.03;4916397;29;20450;-73
2021/03/13 05:07:03;;;;;;;66.63;41.33;;;;;;;4.94;100.00;101002.38;4916997;29;20373;-74
2021/03/13 05:09:48;;;;;;;71.20;43.05;;;;;;;5.35;100.00;100997.56;4916678;29;20028;-73
2021/03/13 05:12:34;;;;;;;64.70;40.50;;;;;;;4.80;100.00;101001.41;4917691;29;20043;-74
2021/03/13 05:15:20;;;;;;;68.10;40.08;;;;;;;4.80;100.00;101003.09;4916430;29;20055;-74
2021/03/13 05:18:06;;;;;;;61.58;38.47;;;;;;;5.13;100.00;100998.22;4917632;29;20039;-74
2021/03/13 05:20:52;;;;;;;57.13;34.50;;;;;;;5.15;100.00;101004.31;4916222;29;20378;-74
2021/03/13 05:23:37;;;;;;;57.10;36.33;;;;;;;5.35;100.00;101015.75;4916999;29;20023;-73
2021/03/13 05:26:23;;;;;;;53.08;32.92;;;;;;;5.42;100.00;101011.47;4916605;29;20096;-74
2021/03/13 05:29:09;;;;;;;49.97;30.85;;;;;;;5.33;100.00;101010.53;4916689;29;20032;-74
2021/03/13 05:31:55;;;;;;;48.90;31.92;;;;;;;5.50;100.00;101020.19;4917856;29;20453;-74
2021/03/13 05:34:41;;;;;;;47.88;30.98;;;;;;;5.43;100.00;101028.78;4920737;29;20045;-74
2021/03/13 05:37:29;;;;;;;45.67;29.52;;;;;;;5.36;100.00;101026.13;4920310;29;20035;-73
2021/03/13 05:40:15;;;;;;;53.95;32.80;;;;;;;5.38;100.00;101017.50;4919860;29;20393;-74
2021/03/13 05:43:01;;;;;;;49.50;31.95;;;;;;;5.22;100.00;101027.75;4920741;29;20430;-74
2021/03/13 05:45:47;;;;;;;51.55;32.42;;;;;;;4.95;100.00;101024.88;4906093;29;20035;-73
2021/03/13 05:48:36;;;;;;;48.80;31.42;;;;;;;5.43;100.00;101034.00;4919921;29;20098;-75
2021/03/13 05:51:23;;;;;;;49.33;30.30;;;;;;;5.61;100.00;101044.50;4906585;29;20055;-74
2021/03/13 05:54:09;;;;;;;46.63;29.85;;;;;;;5.66;100.00;101042.84;4907101;29;20032;-74
2021/03/13 05:56:58;;;;;;;50.97;31.25;;;;;;;5.82;100.00;101035.16;4906255;29;20050;-74
2021/03/13 05:59:44;;;;;;;49.17;31.77;;;;;;;5.71;100.00;101039.41;4919295;29;20107;-74
2021/03/13 06:02:30;;;;;;;49.63;32.35;;;;;;;5.86;100.00;101031.72;4920294;29;20046;-74
2021/03/13 06:05:16;;;;;;;50.83;31.75;;;;;;;6.06;100.00;101024.06;4919794;29;20020;-73
2021/03/13 06:08:02;;;;;;;52.00;32.88;;;;;;;6.18;100.00;101031.94;4920272;29;20028;-73
2021/03/13 06:10:49;;;;;;;54.70;34.53;;;;;;;6.16;100.00;101037.13;4920462;29;20043;-74
2021/03/13 06:13:35;;;;;;;48.70;33.17;;;;;;;6.23;100.00;101033.69;4919646;29;20418;-74
2021/03/13 06:16:22;;;;;;;50.30;32.25;;;;;;;6.10;100.00;101031.88;4906615;29;20028;-74
2021/03/13 06:19:08;;;;;;;53.38;33.33;;;;;;;6.04;100.00;101030.97;4919365;29;20326;-75
2021/03/13 06:21:54;;;;;;;54.17;35.13;;;;;;;6.12;100.00;101039.69;4919115;29;20176;-74
2021/03/13 06:24:39;;;;;;;56.30;35.83;;;;;;;6.00;100.00;101050.91;4919947;29;20032;-73
2021/03/13 06:27:25;;;;;;;49.55;32.83;;;;;;;6.13;100.00;101054.44;4905867;29;20036;-73
2021/03/13 06:30:15;;;;;;;54.42;35.25;;;;;;;6.19;100.00;101078.75;4919609;29;20373;-74
2021/03/13 06:33:37;;;;;;;50.45;32.03;;;;;;;5.87;100.00;101074.22;4918465;29;20048;-74
2021/03/13 06:36:25;;;;;;;44.90;30.00;;;;;;;6.17;100.00;101062.28;4918565;29;20366;-75
2021/03/13 06:39:13;;;;;;;46.83;30.70;;;;;;;6.30;100.00;101061.47;4905210;29;20031;-74
2021/03/13 06:42:20;;;;;;;59.97;39.33;;;;;;;6.42;100.00;101058.94;4918310;29;20373;-74
2021/03/13 06:45:07;;;;;;;58.30;36.80;;;;;;;6.64;100.00;101059.91;4917014;29;20449;-74
2021/03/13 06:47:53;;;;;;;52.60;34.72;;;;;;;6.72;100.00;101050.38;4918355;29;20039;-74
2021/03/13 06:50:39;;;;;;;48.15;32.13;;;;;;;6.54;100.00;101055.50;4917606;29;20039;-74
2021/03/13 06:53:25;;;;;;;53.15;30.73;;;;;;;6.87;100.00;101056.50;4917599;29;20032;-74
2021/03/13 06:56:11;;;;;;;45.63;29.48;;;;;;;6.41;100.00;101061.53;4918198;29;20496;-74
2021/03/13 06:58:58;;;;;;;45.97;30.15;;;;;;;6.59;100.00;101066.81;4904732;29;20040;-74
2021/03/13 07:01:44;;;;;;;48.55;30.75;;;;;;;7.24;100.00;101073.09;4905655;29;20110;-74
2021/03/13 07:04:36;;;;;;;54.55;35.38;;;;;;;7.57;100.00;101073.13;4905430;29;20024;-75
2021/03/13 07:07:30;;;;;;;52.75;32.83;;;;;;;7.92;100.00;101080.03;4918094;29;20031;-74
2021/03/13 07:10:26;;;;;;;52.78;31.35;;;;;;;7.76;100.00;101083.53;4917351;29;20028;-73
2021/03/13 07:13:32;;;;;;;52.10;31.33;;;;;;;7.53;100.00;101095.72;4906660;29;20060;-72
2021/03/13 07:16:24;;;;;;;54.70;32.05;;;;;;;7.60;100.00;101113.06;4908923;29;20032;-73
2021/03/13 07:19:13;;;;;;;47.33;31.50;;;;;;;8.04;100.00;101118.31;4920143;29;20095;-73
2021/03/13 07:21:59;;;;;;;46.90;31.20;;;;;;;7.72;100.00;101128.72;4905383;29;20032;-72
2021/03/13 07:24:48;;;;;;;50.10;32.85;;;;;;;8.11;100.00;101130.47;4921231;29;20040;-73
2021/03/13 07:27:40;;;;;;;51.78;33.08;;;;;;;7.50;100.00;101126.09;4919654;29;20043;-74
2021/03/13 07:30:27;;;;;;;48.47;31.13;;;;;;;7.51;100.00;101112.22;4917744;29;20382;-73
2021/03/13 07:33:14;;;;;;;48.97;30.05;;;;;;;7.48;100.00;101112.22;4882797;29;643259;-73
2021/03/13 07:36:00;;;;;;;44.85;29.15;;;;;;;6.97;100.00;101109.47;4919068;29;20047;-74
2021/03/13 07:38:47;;;;;;;45.72;29.23;;;;;;;7.60;100.00;101130.47;4918416;29;20032;-74
2021/03/13 07:41:37;;;;;;;52.30;33.92;;;;;;;8.15;100.00;101125.25;4904812;29;20028;-74
2021/03/13 07:44:23;;;;;;;49.38;31.00;;;;;;;8.03;100.00;101129.59;4918708;29;20028;-74
2021/03/13 07:47:11;;;;;;;46.80;31.27;;;;;;;8.06;100.00;101127.88;4917480;29;20035;-74
2021/03/13 07:49:57;;;;;;;47.33;30.75;;;;;;;7.83;100.00;101144.38;4918117;29;20035;-73
2021/03/13 07:52:48;;;;;;;54.55;34.10;;;;;;;7.51;100.00;101146.13;4917273;29;20103;-74
2021/03/13 07:55:35;;;;;;;50.17;32.38;;;;;;;7.89;100.00;101137.47;4917461;29;20173;-74
2021/03/13 07:58:22;;;;;;;47.67;32.00;;;;;;;7.79;100.00;101129.59;4917139;29;20038;-73
2021/03/13 08:01:09;;;;;;;51.90;32.50;;;;;;;7.78;100.00;101139.19;4917389;29;20024;-74
2021/03/13 08:03:55;;;;;;;48.17;33.28;;;;;;;8.10;100.00;101134.84;4917059;29;20024;-74
2021/03/13 08:06:58;;;;;;;58.60;35.33;;;;;;;8.06;100.00;101132.22;4917760;29;20039;-74
2021/03/13 08:09:44;;;;;;;61.28;38.13;;;;;;;7.15;100.00;101133.00;4917707;29;20307;-74
2021/03/13 08:12:37;;;;;;;59.53;39.10;;;;;;;7.63;100.00;101143.53;4917713;29;20357;-74
2021/03/13 08:15:31;;;;;;;56.72;38.17;;;;;;;7.94;100.00;101133.09;4917384;29;20376;-73
2021/03/13 08:18:43;;;;;;;61.95;38.75;;;;;;;7.38;100.00;101142.59;4919342;29;20019;-73
2021/03/13 08:24:53;;;;;;;53.55;34.75;;;;;;;7.31;100.00;101125.22;4917870;29;20098;-74
2021/03/13 08:27:42;;;;;;;53.90;35.80;;;;;;;7.14;100.00;101120.81;4916356;29;20445;-73
2021/03/13 08:30:29;;;;;;;53.30;35.55;;;;;;;7.72;100.00;101135.72;4918196;29;20064;-74
2021/03/13 08:33:25;;;;;;;54.88;38.13;;;;;;;7.60;100.00;101140.91;4903488;29;20044;-73
2021/03/13 08:36:15;;;;;;;53.70;36.08;;;;;;;7.84;100.00;101149.59;4918165;29;20028;-73
2021/03/13 08:39:01;;;;;;;55.90;36.65;;;;;;;8.09;100.00;101153.09;4904028;29;20063;-74
2021/03/13 08:42:05;;;;;;;55.35;35.33;;;;;;;7.91;100.00;101155.69;4917469;29;20473;-75
2021/03/13 08:45:10;;;;;;;51.50;34.58;;;;;;;7.51;100.00;101152.19;4917799;29;20417;-74
2021/03/13 08:47:56;;;;;;;57.75;36.00;;;;;;;7.86;100.00;101149.63;4918649;29;20354;-74
2021/03/13 08:50:48;;;;;;;54.58;34.83;;;;;;;8.11;100.00;101140.91;4917612;29;20346;-74
2021/03/13 08:53:34;;;;;;;50.28;33.28;;;;;;;7.83;100.00;101152.22;4916371;29;20029;-76
2021/03/13 08:56:43;;;;;;;53.33;34.05;;;;;;;8.04;100.00;101147.03;4917105;29;20048;-74
2021/03/13 08:59:28;;;;;;;50.33;32.53;;;;;;;8.19;100.00;101142.66;4917587;29;20092;-74
2021/03/13 09:02:19;;;;;;;49.72;32.60;;;;;;;7.95;100.00;101141.78;4916507;29;20473;-73
2021/03/13 09:05:21;;;;;;;49.83;33.22;;;;;;;7.43;100.00;101138.28;4903674;29;20116;-74
2021/03/13 09:08:07;;;;;;;54.78;34.17;;;;;;;6.43;100.00;101122.28;4919840;29;20036;-74
2021/03/13 09:10:52;;;;;;;56.75;36.55;;;;;;;7.12;100.00;101128.63;4920712;29;20036;-74
2021/03/13 09:13:38;;;;;;;59.80;39.25;;;;;;;7.49;100.00;101129.59;4920843;29;20032;-74
2021/03/13 09:16:24;;;;;;;65.80;41.65;;;;;;;7.66;100.00;101125.25;4907536;29;20382;-74
2021/03/13 09:19:13;;;;;;;55.90;36.83;;;;;;;7.32;100.00;101120.88;4920267;29;20024;-74
2021/03/13 09:21:59;;;;;;;58.00;35.83;;;;;;;7.10;100.00;101127.75;4906909;29;20032;-74
2021/03/13 09:25:02;;;;;;;53.03;35.63;;;;;;;7.49;100.00;101130.47;4907505;29;20475;-74
2021/03/13 09:27:52;;;;;;;54.45;36.55;;;;;;;8.53;100.00;101126.06;4918961;29;20140;-74
2021/03/13 09:30:38;;;;;;;60.22;38.58;;;;;;;8.08;100.00;101122.66;4921285;29;20343;-73
2021/03/13 09:33:23;;;;;;;57.38;37.53;;;;;;;8.24;100.00;101132.25;4920347;29;20052;-74
2021/03/13 09:36:10;;;;;;;56.15;38.30;;;;;;;8.35;100.00;101141.78;4907455;29;20043;-74
2021/03/13 09:38:56;;;;;;;53.13;34.67;;;;;;;9.19;100.00;101151.06;4920485;29;20048;-74
2021/03/13 09:41:42;;;;;;;57.30;36.13;;;;;;;9.37;100.00;101161.44;4920206;29;20068;-75
2021/03/13 09:44:39;;;;;;;49.80;34.15;;;;;;;9.05;100.00;101152.91;4920691;29;20027;-74
2021/03/13 09:47:32;;;;;;;47.72;32.42;;;;;;;8.66;100.00;101158.25;4918960;29;20028;-75
2021/03/13 09:50:24;;;;;;;52.88;34.28;;;;;;;8.41;100.00;101161.78;4907658;29;20036;-72
2021/03/13 09:53:11;;;;;;;49.25;32.78;;;;;;;9.16;100.00;101158.91;4906806;29;20052;-72
2021/03/13 09:55:57;;;;;;;50.80;32.20;;;;;;;8.99;100.00;101156.41;4921428;29;20028;-74
2021/03/13 09:58:56;;;;;;;49.80;32.70;;;;;;;9.25;100.00;101158.91;4919149;29;20028;-73
2021/03/13 10:01:41;;;;;;;49.53;31.95;;;;;;;9.60;100.00;101156.91;4919999;29;20032;-73
2021/03/13 10:04:28;;;;;;;53.58;35.38;;;;;;;9.48;100.00;101165.72;4919703;29;20024;-76
2021/03/13 10:07:15;;;;;;;50.78;34.05;;;;;;;9.68;100.00;101152.50;4919373;29;20039;-74
2021/03/13 10:10:02;;;;;;;59.17;38.35;;;;;;;9.32;100.00;101157.97;4919732;29;20059;-73
2021/03/13 10:12:54;;;;;;;60.53;38.33;;;;;;;9.67;100.00;101169.97;4920491;29;20032;-75
2021/03/13 10:15:40;;;;;;;52.97;34.95;;;;;;;9.70;100.00;101163.84;4918990;29;20036;-75
2021/03/13 10:18:28;;;;;;;57.67;37.30;;;;;;;9.97;100.00;101179.34;4920127;29;20036;-74
2021/03/13 10:21:13;;;;;;;63.25;40.65;;;;;;;9.02;100.00;101164.22;4919403;29;20040;-74
2021/03/13 10:24:00;;;;;;;57.20;39.25;;;;;;;9.64;100.00;101176.94;4920314;29;20047;-74
2021/03/13 10:26:46;;;;;;;54.55;37.60;;;;;;;9.86;100.00;101173.31;4918762;29;20028;-74
2021/03/13 10:29:31;;;;;;;59.28;38.85;;;;;;;9.97;100.00;101187.22;4918707;29;20059;-74
2021/03/13 10:32:24;;;;;;;63.35;40.88;;;;;;;10.05;100.00;101194.13;4918913;29;20052;-74
2021/03/13 10:35:16;;;;;;;60.35;39.10;;;;;;;9.84;100.00;101198.63;4919875;29;20036;-74
2021/03/13 10:38:17;;;;;;;58.53;39.10;;;;;;;9.11;100.00;101186.84;4919991;29;20107;-74
2021/03/13 10:41:10;;;;;;;68.95;43.10;;;;;;;9.43;100.00;101179.69;4919644;29;20024;-74
2021/03/13 10:43:57;;;;;;;63.85;40.63;;;;;;;10.49;100.00;101170.16;4919016;29;20383;-74
2021/03/13 10:46:42;;;;;;;68.68;46.85;;;;;;;10.44;100.00;101168.50;4919827;29;20047;-74
2021/03/13 10:49:28;;;;;;;64.53;44.90;;;;;;;10.75;100.00;101183.88;4919343;29;20028;-74
2021/03/13 10:52:27;;;;;;;78.85;49.05;;;;;;;10.94;100.00;101184.53;4906538;29;20036;-74
2021/03/13 10:55:12;;;;;;;71.13;45.97;;;;;;;10.39;100.00;101186.00;4924242;29;20032;-75
2021/03/13 10:58:01;;;;;;;53.33;35.83;;;;;;;10.82;100.00;101180.31;4923051;29;20056;-73
2021/03/13 11:00:47;;;;;;;52.75;35.55;;;;;;;10.55;100.00;101169.25;4922755;29;20027;-73
2021/03/13 11:03:34;;;;;;;50.00;33.90;;;;;;;10.70;100.00;101166.47;4921416;29;20091;-74
2021/03/13 11:06:26;;;;;;;48.63;34.53;;;;;;;10.96;100.00;101162.66;4921120;29;20024;-74
2021/03/13 11:09:12;;;;;;;47.78;32.70;;;;;;;11.19;100.00;101165.88;4919930;29;20118;-74
2021/03/13 11:11:58;;;;;;;51.28;34.95;;;;;;;10.97;100.00;101171.41;4906258;29;20362;-74
2021/03/13 11:14:43;;;;;;;47.33;32.75;;;;;;;10.45;100.00;101160.59;4918448;29;20036;-74
2021/03/13 11:17:29;;;;;;;48.63;31.92;;;;;;;11.16;100.00;101151.91;4919033;29;20043;-74
2021/03/13 11:20:15;;;;;;;50.92;35.90;;;;;;;10.90;100.00;101156.63;4918658;29;20080;-73
2021/03/13 11:23:02;;;;;;;52.00;33.22;;;;;;;10.90;100.00;101165.38;4905233;29;20111;-74
2021/03/13 11:25:48;;;;;;;44.80;32.92;;;;;;;11.49;100.00;101160.19;4905790;29;20151;-74
2021/03/13 11:28:34;;;;;;;49.08;34.38;;;;;;;11.28;100.00;101172.75;4918000;29;20028;-74
2021/03/13 11:31:20;;;;;;;48.40;33.00;;;;;;;10.43;100.00;101158.88;4919179;29;20050;-74
2021/03/13 11:34:09;;;;;;;47.40;34.03;;;;;;;10.85;100.00;101164.53;4917702;29;20044;-74
2021/03/13 11:36:55;;;;;;;46.53;31.98;;;;;;;11.16;100.00;101162.41;4918863;29;20544;-75
2021/03/13 11:39:40;;;;;;;52.15;33.42;;;;;;;10.89;100.00;101153.13;4917932;29;20092;-74
2021/03/13 11:42:29;;;;;;;50.42;33.42;;;;;;;11.12;100.00;101153.72;4919014;29;20449;-75
2021/03/13 11:45:15;;;;;;;47.53;34.17;;;;;;;11.63;100.00;101157.41;4917377;29;20043;-75
2021/03/13 11:48:01;;;;;;;49.05;34.30;;;;;;;11.89;100.00;101165.78;4918728;29;20028;-75
2021/03/13 11:50:47;;;;;;;48.38;32.70;;;;;;;11.62;100.00;101176.69;4917761;29;20377;-75
2021/03/13 11:53:33;;;;;;;48.72;33.03;;;;;;;11.61;100.00;101175.81;4917657;29;20055;-75
